createdAt,value
2018-09-25T00:02:31.399Z,6.24
2018-09-25T00:05:05.294Z,6.23
2018-09-25T00:07:38.987Z,6.25
2018-09-25T00:10:12.868Z,6.26
2018-09-25T00:12:46.723Z,6.24
2018-09-25T00:15:20.554Z,6.26
2018-09-25T00:17:54.407Z,6.26
2018-09-25T00:20:28.022Z,6.25
2018-09-25T00:23:01.806Z,6.25
2018-09-25T00:25:35.652Z,6.27
2018-09-25T00:28:09.472Z,6.28
2018-09-25T00:30:43.191Z,6.29
2018-09-25T00:33:16.974Z,6.28
2018-09-25T00:35:50.873Z,6.27
2018-09-25T00:38:24.567Z,6.27
2018-09-25T00:40:58.284Z,6.27
2018-09-25T00:43:31.975Z,6.27
2018-09-25T00:46:05.606Z,6.25
2018-09-25T00:48:39.284Z,6.26
2018-09-25T00:51:13.002Z,6.24
2018-09-25T00:53:46.611Z,6.24
2018-09-25T00:56:20.304Z,6.24
2018-09-25T00:58:53.993Z,6.22
2018-09-25T01:01:27.839Z,6.21
2018-09-25T01:04:01.645Z,6.22
2018-09-25T01:06:35.423Z,6.22
2018-09-25T01:09:09.495Z,6.21
2018-09-25T01:11:43.336Z,6.20
2018-09-25T01:14:17.147Z,6.21
2018-09-25T01:16:50.870Z,6.20
2018-09-25T01:19:24.530Z,6.19
2018-09-25T01:21:58.398Z,6.20
2018-09-25T01:24:32.162Z,6.20
2018-09-25T01:27:05.858Z,6.20
2018-09-25T01:29:39.826Z,6.20
2018-09-25T01:32:13.591Z,6.20
2018-09-25T01:34:47.381Z,6.20
2018-09-25T01:37:21.097Z,6.18
2018-09-25T01:39:55.053Z,6.19
2018-09-25T01:42:28.834Z,6.18
2018-09-25T01:45:02.602Z,6.20
2018-09-25T01:47:36.370Z,6.19
2018-09-25T01:50:10.186Z,6.17
2018-09-25T01:52:43.822Z,6.19
2018-09-25T01:55:17.394Z,6.18
2018-09-25T01:57:51.035Z,6.16
2018-09-25T02:00:24.828Z,6.12
2018-09-25T02:02:58.569Z,6.13
2018-09-25T02:05:32.294Z,6.12
2018-09-25T02:08:06.030Z,6.11
2018-09-25T02:10:39.746Z,6.12
2018-09-25T02:13:13.582Z,6.09
2018-09-25T02:15:47.258Z,6.09
2018-09-25T02:18:21.009Z,6.08
2018-09-25T02:20:54.669Z,6.06
2018-09-25T02:23:28.531Z,6.06
2018-09-25T02:26:02.422Z,6.07
2018-09-25T02:28:36.090Z,6.05
2018-09-25T02:31:09.714Z,6.06
2018-09-25T02:33:43.550Z,6.00
2018-09-25T02:36:17.197Z,6.01
2018-09-25T02:38:51.037Z,5.99
2018-09-25T02:41:24.630Z,5.96
2018-09-25T02:43:58.469Z,5.95
2018-09-25T02:46:32.116Z,5.93
2018-09-25T02:49:05.974Z,5.93
2018-09-25T02:51:39.618Z,5.92
2018-09-25T02:54:13.454Z,5.93
2018-09-25T02:56:47.279Z,5.91
2018-09-25T02:59:21.067Z,5.85
2018-09-25T03:01:54.710Z,5.89
2018-09-25T03:04:28.479Z,5.87
2018-09-25T03:07:02.146Z,5.85
2018-09-25T03:09:35.810Z,5.86
2018-09-25T03:12:09.459Z,5.82
2018-09-25T03:14:43.141Z,5.83
2018-09-25T03:17:16.762Z,5.84
2018-09-25T03:19:50.381Z,5.82
2018-09-25T03:22:23.980Z,5.85
2018-09-25T03:24:57.816Z,5.85
2018-09-25T03:27:31.605Z,5.85
2018-09-25T03:30:05.446Z,5.84
2018-09-25T03:32:39.118Z,5.80
2018-09-25T03:35:12.858Z,5.84
2018-09-25T03:37:46.649Z,5.84
2018-09-25T03:40:20.466Z,5.84
2018-09-25T03:42:54.138Z,5.84
2018-09-25T03:45:27.827Z,5.83
2018-09-25T03:48:01.550Z,5.84
2018-09-25T03:50:35.234Z,5.81
2018-09-25T03:53:09.026Z,5.83
2018-09-25T03:55:42.896Z,5.83
2018-09-25T03:58:16.642Z,5.82
2018-09-25T04:00:50.527Z,5.82
2018-09-25T04:03:24.198Z,5.79
2018-09-25T04:05:58.103Z,5.82
2018-09-25T04:08:31.882Z,5.81
2018-09-25T04:11:05.594Z,5.81
2018-09-25T04:13:39.165Z,5.81
2018-09-25T04:16:13.055Z,5.79
2018-09-25T04:18:46.955Z,5.78
2018-09-25T04:21:20.768Z,5.79
2018-09-25T04:23:54.459Z,5.77
2018-09-25T04:26:28.251Z,5.79
2018-09-25T04:29:01.927Z,5.79
2018-09-25T04:31:35.787Z,5.79
2018-09-25T04:34:09.680Z,5.79
2018-09-25T04:36:43.442Z,5.80
2018-09-25T04:39:17.186Z,5.81
2018-09-25T04:41:50.998Z,5.80
2018-09-25T04:44:24.598Z,5.81
2018-09-25T04:46:58.306Z,5.78
2018-09-25T04:49:32.023Z,5.82
2018-09-25T04:52:05.841Z,5.82
2018-09-25T04:54:39.539Z,5.83
2018-09-25T04:57:13.330Z,5.85
2018-09-25T04:59:47.122Z,5.85
2018-09-25T05:02:20.810Z,5.85
2018-09-25T05:04:54.778Z,5.85
2018-09-25T05:07:28.571Z,5.88
2018-09-25T05:10:02.266Z,5.90
2018-09-25T05:12:35.978Z,5.91
2018-09-25T05:15:09.676Z,5.94
2018-09-25T05:17:43.391Z,5.97
2018-09-25T05:20:17.186Z,6.00
2018-09-25T05:22:50.996Z,6.03
2018-09-25T05:25:24.743Z,6.07
2018-09-25T05:27:58.418Z,6.10
2018-09-25T05:30:32.316Z,6.14
2018-09-25T05:33:06.116Z,6.15
2018-09-25T05:35:39.913Z,6.16
2018-09-25T05:38:13.735Z,6.18
2018-09-25T05:40:47.440Z,6.16
2018-09-25T05:43:21.234Z,6.22
2018-09-25T05:45:54.879Z,6.26
2018-09-25T05:48:28.691Z,6.30
2018-09-25T05:51:02.210Z,6.35
2018-09-25T05:53:35.958Z,6.39
2018-09-25T05:56:09.630Z,6.43
2018-09-25T05:58:43.338Z,6.47
2018-09-25T06:01:17.187Z,6.53
2018-09-25T06:03:50.977Z,6.58
2018-09-25T06:06:24.765Z,6.65
2018-09-25T06:08:58.483Z,6.70
2018-09-25T06:11:32.304Z,6.77
2018-09-25T06:14:06.117Z,6.83
2018-09-25T06:16:39.833Z,6.90
2018-09-25T06:19:13.594Z,6.96
2018-09-25T06:21:47.297Z,7.04
2018-09-25T06:24:20.958Z,7.09
2018-09-25T06:26:54.701Z,7.16
2018-09-25T06:29:28.452Z,7.23
2018-09-25T06:32:02.148Z,7.29
2018-09-25T06:34:36.029Z,7.38
2018-09-25T06:37:09.704Z,7.45
2018-09-25T06:39:43.439Z,7.51
2018-09-25T06:42:17.083Z,7.60
2018-09-25T06:44:50.769Z,7.67
2018-09-25T06:47:24.621Z,7.75
2018-09-25T06:49:58.226Z,7.83
2018-09-25T06:52:32.078Z,7.91
2018-09-25T06:55:05.875Z,8.00
2018-09-25T06:57:39.434Z,8.07
2018-09-25T07:00:13.098Z,8.16
2018-09-25T07:02:46.866Z,8.25
2018-09-25T07:05:20.708Z,8.33
2018-09-25T07:07:54.518Z,8.41
2018-09-25T07:10:28.436Z,8.51
2018-09-25T07:13:01.962Z,8.60
2018-09-25T07:15:35.878Z,8.70
2018-09-25T07:18:09.499Z,8.79
2018-09-25T07:20:43.358Z,8.87
2018-09-25T07:23:17.131Z,8.98
2018-09-25T07:25:50.773Z,9.06
2018-09-25T07:28:24.538Z,9.17
2018-09-25T07:30:58.380Z,9.26
2018-09-25T07:33:32.221Z,9.36
2018-09-25T07:36:06.090Z,9.45
2018-09-25T07:38:39.854Z,9.57
2018-09-25T07:41:13.718Z,9.65
2018-09-25T07:43:47.466Z,9.73
2018-09-25T07:46:21.309Z,9.83
2018-09-25T07:48:55.070Z,9.93
2018-09-25T07:51:28.793Z,10.02
2018-09-25T07:54:02.611Z,10.10
2018-09-25T07:56:36.322Z,10.17
2018-09-25T07:59:09.970Z,10.27
2018-09-25T08:01:43.707Z,10.34
2018-09-25T08:04:17.430Z,10.44
2018-09-25T08:06:51.148Z,10.51
2018-09-25T08:09:24.818Z,10.62
2018-09-25T08:11:58.507Z,10.71
2018-09-25T08:14:32.354Z,10.80
2018-09-25T08:17:06.063Z,10.90
2018-09-25T08:19:39.787Z,10.99
2018-09-25T08:22:13.547Z,11.08
2018-09-25T08:24:47.337Z,11.15
2018-09-25T08:27:21.199Z,11.22
2018-09-25T08:29:54.884Z,11.30
2018-09-25T08:32:28.595Z,11.36
2018-09-25T08:35:02.317Z,11.44
2018-09-25T08:37:36.126Z,11.52
2018-09-25T08:40:09.821Z,11.60
2018-09-25T08:42:43.635Z,11.66
2018-09-25T08:45:17.409Z,11.73
2018-09-25T08:47:51.245Z,11.80
2018-09-25T08:50:24.886Z,11.89
2018-09-25T08:53:06.602Z,11.94
2018-09-25T08:55:40.200Z,12.00
2018-09-25T08:58:13.947Z,12.04
2018-09-25T09:00:47.779Z,12.09
2018-09-25T09:03:21.673Z,12.16
2018-09-25T09:05:55.567Z,12.22
2018-09-25T09:08:29.425Z,12.25
2018-09-25T09:11:03.030Z,12.32
2018-09-25T09:13:37.413Z,12.40
2018-09-25T09:16:11.162Z,12.48
2018-09-25T09:18:45.003Z,12.46
2018-09-25T09:21:18.675Z,12.47
2018-09-25T09:23:52.558Z,12.56
2018-09-25T09:26:26.455Z,12.63
2018-09-25T09:29:00.343Z,12.73
2018-09-25T09:31:33.991Z,12.78
2018-09-25T09:34:07.682Z,12.87
2018-09-25T09:36:41.429Z,12.90
2018-09-25T09:39:15.110Z,12.92
2018-09-25T09:41:49.066Z,13.03
2018-09-25T09:44:22.672Z,13.14
2018-09-25T09:46:56.442Z,13.32
2018-09-25T09:49:30.177Z,13.52
2018-09-25T09:52:04.082Z,13.67
2018-09-25T09:54:37.896Z,13.72
2018-09-25T09:57:11.938Z,13.73
2018-09-25T09:59:45.678Z,13.67
2018-09-25T10:02:19.366Z,13.65
2018-09-25T10:04:53.133Z,13.59
2018-09-25T10:07:26.761Z,13.50
2018-09-25T10:10:00.567Z,13.51
2018-09-25T10:12:34.220Z,13.49
2018-09-25T10:15:08.060Z,13.56
2018-09-25T10:17:41.806Z,13.56
2018-09-25T10:20:15.590Z,13.65
2018-09-25T10:22:49.334Z,13.74
2018-09-25T10:25:23.118Z,13.85
2018-09-25T10:27:56.818Z,13.94
2018-09-25T10:30:30.629Z,14.02
2018-09-25T10:33:04.302Z,14.16
2018-09-25T10:35:37.917Z,14.33
2018-09-25T10:38:11.633Z,14.50
2018-09-25T10:40:45.606Z,14.54
2018-09-25T10:43:19.246Z,14.64
2018-09-25T10:45:53.010Z,14.69
2018-09-25T10:48:26.777Z,14.79
2018-09-25T10:51:00.518Z,14.83
2018-09-25T10:53:34.335Z,14.90
2018-09-25T10:56:08.277Z,14.92
2018-09-25T10:58:41.926Z,14.97
2018-09-25T11:01:15.766Z,15.02
2018-09-25T11:03:49.418Z,15.08
2018-09-25T11:06:23.226Z,15.11
2018-09-25T11:08:56.843Z,15.17
2018-09-25T11:11:30.533Z,15.18
2018-09-25T11:14:04.380Z,15.18
2018-09-25T11:16:38.206Z,15.11
2018-09-25T11:19:11.866Z,15.05
2018-09-25T11:21:45.678Z,14.97
2018-09-25T11:24:19.530Z,14.93
2018-09-25T11:26:53.318Z,14.95
2018-09-25T11:29:26.912Z,14.99
2018-09-25T11:32:00.622Z,15.03
2018-09-25T11:34:34.418Z,15.00
2018-09-25T11:37:08.131Z,14.95
2018-09-25T11:39:41.809Z,14.98
2018-09-25T11:42:15.467Z,14.96
2018-09-25T11:44:49.210Z,14.95
2018-09-25T11:47:23.035Z,14.94
2018-09-25T11:49:56.760Z,14.99
2018-09-25T11:52:30.594Z,15.03
2018-09-25T11:55:04.364Z,15.11
2018-09-25T11:57:38.254Z,15.12
2018-09-25T12:00:12.083Z,15.08
2018-09-25T12:02:45.906Z,15.07
2018-09-25T12:05:19.594Z,15.08
2018-09-25T12:07:53.437Z,15.17
2018-09-25T12:10:27.291Z,15.26
2018-09-25T12:13:01.102Z,15.37
2018-09-25T12:15:34.898Z,15.47
2018-09-25T12:18:08.662Z,15.56
2018-09-25T12:20:42.431Z,15.62
2018-09-25T12:23:16.149Z,15.64
2018-09-25T12:25:49.945Z,15.61
2018-09-25T12:28:23.654Z,15.60
2018-09-25T12:30:57.428Z,15.54
2018-09-25T12:33:31.110Z,15.49
2018-09-25T12:36:04.837Z,15.39
2018-09-25T12:38:38.529Z,15.31
2018-09-25T12:41:12.470Z,15.26
2018-09-25T12:43:46.183Z,15.23
2018-09-25T12:46:19.801Z,15.22
2018-09-25T12:48:53.443Z,15.24
2018-09-25T12:51:27.092Z,15.25
2018-09-25T12:54:00.754Z,15.26
2018-09-25T12:56:34.426Z,15.27
2018-09-25T12:59:08.189Z,15.25
2018-09-25T13:01:41.887Z,15.28
2018-09-25T13:04:15.722Z,15.29
2018-09-25T13:06:49.629Z,15.31
2018-09-25T13:09:23.333Z,15.29
2018-09-25T13:11:57.107Z,15.28
2018-09-25T13:14:30.809Z,15.28
2018-09-25T13:17:04.552Z,15.25
2018-09-25T13:19:38.374Z,15.24
2018-09-25T13:22:12.145Z,15.23
2018-09-25T13:24:45.976Z,15.22
2018-09-25T13:27:19.730Z,15.23
2018-09-25T13:29:53.448Z,15.24
2018-09-25T13:32:27.143Z,15.25
2018-09-25T13:35:01.002Z,15.28
2018-09-25T13:37:34.698Z,15.33
2018-09-25T13:40:08.363Z,15.37
2018-09-25T13:42:42.611Z,15.38
2018-09-25T13:45:16.422Z,15.38
2018-09-25T13:47:50.065Z,15.36
2018-09-25T13:50:23.858Z,15.33
2018-09-25T13:52:57.482Z,15.32
2018-09-25T13:55:31.186Z,15.33
2018-09-25T13:58:04.787Z,15.35
2018-09-25T14:00:38.665Z,15.33
2018-09-25T14:03:12.446Z,15.33
2018-09-25T14:05:46.239Z,15.32
2018-09-25T14:08:19.905Z,15.34
2018-09-25T14:10:53.570Z,15.34
2018-09-25T14:13:27.366Z,15.33
2018-09-25T14:16:01.210Z,15.33
2018-09-25T14:18:35.021Z,15.32
2018-09-25T14:21:08.816Z,15.32
2018-09-25T14:23:42.577Z,15.31
2018-09-25T14:26:16.411Z,15.28
2018-09-25T14:28:50.122Z,15.27
2018-09-25T14:31:23.915Z,15.23
2018-09-25T14:33:57.728Z,15.19
2018-09-25T14:36:31.396Z,15.18
2018-09-25T14:39:05.064Z,15.17
2018-09-25T14:41:38.779Z,15.15
2018-09-25T14:44:12.657Z,15.12
2018-09-25T14:46:46.442Z,15.11
2018-09-25T14:49:20.206Z,15.14
2018-09-25T14:51:53.921Z,15.13
2018-09-25T14:54:27.779Z,15.13
2018-09-25T14:57:01.434Z,15.13
2018-09-25T14:59:35.153Z,15.11
2018-09-25T15:02:08.870Z,15.09
2018-09-25T15:04:42.662Z,15.05
2018-09-25T15:07:16.548Z,15.01
2018-09-25T15:09:50.370Z,14.95
2018-09-25T15:12:24.117Z,14.92
2018-09-25T15:14:57.785Z,14.89
2018-09-25T15:17:31.527Z,14.87
2018-09-25T15:20:05.186Z,14.83
2018-09-25T15:22:38.906Z,14.80
2018-09-25T15:25:13.003Z,14.76
2018-09-25T15:27:46.890Z,14.72
2018-09-25T15:30:20.734Z,14.68
2018-09-25T15:32:54.526Z,14.63
2018-09-25T15:35:28.499Z,14.61
2018-09-25T15:38:02.059Z,14.57
2018-09-25T15:40:35.766Z,14.53
2018-09-25T15:43:09.603Z,14.48
2018-09-25T15:45:43.570Z,14.43
2018-09-25T15:48:17.310Z,14.38
2018-09-25T15:50:50.946Z,14.36
2018-09-25T15:53:24.663Z,14.33
2018-09-25T15:55:58.385Z,14.29
2018-09-25T15:58:32.221Z,14.25
2018-09-25T16:01:06.766Z,14.22
2018-09-25T16:03:40.434Z,14.18
2018-09-25T16:06:14.098Z,14.15
2018-09-25T16:08:47.866Z,14.10
2018-09-25T16:11:21.571Z,14.07
2018-09-25T16:13:55.406Z,14.03
2018-09-25T16:16:29.019Z,13.97
2018-09-25T16:19:02.786Z,13.94
2018-09-25T16:21:36.610Z,13.88
2018-09-25T16:24:10.277Z,13.82
2018-09-25T16:26:43.941Z,13.74
2018-09-25T16:29:17.786Z,13.67
2018-09-25T16:31:51.450Z,13.59
2018-09-25T16:34:25.223Z,13.49
2018-09-25T16:36:58.885Z,13.40
2018-09-25T16:39:32.776Z,13.31
2018-09-25T16:42:06.470Z,13.23
2018-09-25T16:44:40.137Z,13.13
2018-09-25T16:47:14.055Z,13.04
2018-09-25T16:49:47.750Z,12.94
2018-09-25T16:52:21.415Z,12.86
2018-09-25T16:54:55.158Z,12.76
2018-09-25T16:57:28.846Z,12.68
2018-09-25T17:00:02.535Z,12.59
2018-09-25T17:02:36.234Z,12.48
2018-09-25T17:05:09.945Z,12.40
2018-09-25T17:07:43.626Z,12.29
2018-09-25T17:10:17.490Z,12.22
2018-09-25T17:12:51.253Z,12.12
2018-09-25T17:15:25.090Z,12.04
2018-09-25T17:17:58.890Z,11.98
2018-09-25T17:20:32.711Z,11.89
2018-09-25T17:23:06.374Z,11.82
2018-09-25T17:25:40.116Z,11.75
2018-09-25T17:28:13.934Z,11.69
2018-09-25T17:30:47.713Z,11.63
2018-09-25T17:33:21.490Z,11.58
2018-09-25T17:35:55.233Z,11.51
2018-09-25T17:38:29.010Z,11.45
2018-09-25T17:41:02.742Z,11.40
2018-09-25T17:43:36.410Z,11.36
2018-09-25T17:46:10.278Z,11.30
2018-09-25T17:48:44.077Z,11.25
2018-09-25T17:51:17.785Z,11.19
2018-09-25T17:53:51.550Z,11.13
2018-09-25T17:56:25.250Z,11.06
2018-09-25T17:58:58.862Z,11.01
2018-09-25T18:01:32.678Z,10.95
2018-09-25T18:04:06.480Z,10.89
2018-09-25T18:06:40.231Z,10.82
2018-09-25T18:09:14.666Z,10.77
2018-09-25T18:11:48.523Z,10.71
2018-09-25T18:14:22.262Z,10.64
2018-09-25T18:16:55.929Z,10.57
2018-09-25T18:19:29.658Z,10.51
2018-09-25T18:22:03.346Z,10.45
2018-09-25T18:24:37.166Z,10.41
2018-09-25T18:27:11.178Z,10.36
2018-09-25T18:29:44.986Z,10.31
2018-09-25T18:32:18.810Z,10.27
2018-09-25T18:34:52.430Z,10.22
2018-09-25T18:37:26.101Z,10.15
2018-09-25T18:39:59.914Z,10.12
2018-09-25T18:42:33.734Z,10.08
2018-09-25T18:45:07.407Z,10.05
2018-09-25T18:47:41.037Z,10.03
2018-09-25T18:50:14.806Z,9.99
2018-09-25T18:52:48.557Z,9.97
2018-09-25T18:55:22.315Z,9.95
2018-09-25T18:57:56.130Z,9.93
2018-09-25T19:00:29.923Z,9.92
2018-09-25T19:03:03.746Z,9.91
2018-09-25T19:05:37.411Z,9.87
2018-09-25T19:08:11.122Z,9.85
2018-09-25T19:10:44.817Z,9.82
2018-09-25T19:13:18.561Z,9.81
2018-09-25T19:15:52.437Z,9.79
2018-09-25T19:18:26.318Z,9.77
2018-09-25T19:21:00.187Z,9.76
2018-09-25T19:23:33.902Z,9.74
2018-09-25T19:26:08.023Z,9.72
2018-09-25T19:28:41.834Z,9.68
2018-09-25T19:31:15.506Z,9.65
2018-09-25T19:33:49.146Z,9.61
2018-09-25T19:36:22.947Z,9.59
2018-09-25T19:38:56.630Z,9.56
2018-09-25T19:41:30.434Z,9.52
2018-09-25T19:44:04.246Z,9.49
2018-09-25T19:46:38.075Z,9.45
2018-09-25T19:49:11.883Z,9.43
2018-09-25T19:51:45.575Z,9.41
2018-09-25T19:54:19.362Z,9.40
2018-09-25T19:56:53.194Z,9.38
2018-09-25T19:59:26.920Z,9.39
2018-09-25T20:02:00.806Z,9.38
2018-09-25T20:04:34.505Z,9.38
2018-09-25T20:07:08.290Z,9.37
2018-09-25T20:09:42.114Z,9.37
2018-09-25T20:12:15.945Z,9.36
2018-09-25T20:14:49.826Z,9.36
2018-09-25T20:17:24.682Z,9.36
2018-09-25T20:19:58.458Z,9.36
2018-09-25T20:22:32.270Z,9.37
2018-09-25T20:25:06.010Z,9.36
2018-09-25T20:27:39.930Z,9.36
2018-09-25T20:30:13.555Z,9.35
2018-09-25T20:32:47.434Z,9.33
2018-09-25T20:35:21.308Z,9.32
2018-09-25T20:37:55.127Z,9.30
2018-09-25T20:40:28.900Z,9.28
2018-09-25T20:43:02.667Z,9.25
2018-09-25T20:45:36.406Z,9.22
2018-09-25T20:48:10.258Z,9.19
2018-09-25T20:50:44.118Z,9.16
2018-09-25T20:53:17.999Z,9.13
2018-09-25T20:55:51.774Z,9.11
2018-09-25T20:58:25.390Z,9.07
2018-09-25T21:00:59.134Z,9.05
2018-09-25T21:03:32.974Z,9.03
2018-09-25T21:06:06.866Z,9.01
2018-09-25T21:08:40.582Z,8.99
2018-09-25T21:11:14.381Z,8.96
2018-09-25T21:13:48.214Z,8.93
2018-09-25T21:16:21.962Z,8.93
2018-09-25T21:18:55.825Z,8.90
2018-09-25T21:21:29.492Z,8.90
2018-09-25T21:24:03.191Z,8.90
2018-09-25T21:26:36.938Z,8.91
2018-09-25T21:29:10.870Z,8.87
2018-09-25T21:31:44.490Z,8.86
2018-09-25T21:34:18.230Z,8.84
2018-09-25T21:36:51.898Z,8.82
2018-09-25T21:39:25.838Z,8.84
2018-09-25T21:41:59.530Z,8.83
2018-09-25T21:44:33.245Z,8.82
2018-09-25T21:47:07.097Z,8.81
2018-09-25T21:49:40.730Z,8.78
2018-09-25T21:52:14.478Z,8.77
2018-09-25T21:54:48.218Z,8.75
2018-09-25T21:57:22.114Z,8.76
2018-09-25T21:59:55.774Z,8.75
2018-09-25T22:02:29.370Z,8.74
2018-09-25T22:05:03.206Z,8.73
2018-09-25T22:07:37.028Z,8.72
2018-09-25T22:10:10.917Z,8.71
2018-09-25T22:12:44.739Z,8.72
2018-09-25T22:15:18.579Z,8.72
2018-09-25T22:17:52.499Z,8.71
2018-09-25T22:20:26.386Z,8.73
2018-09-25T22:23:00.182Z,8.72
2018-09-25T22:25:33.966Z,8.72
2018-09-25T22:28:07.791Z,8.72
2018-09-25T22:30:41.554Z,8.73
2018-09-25T22:33:15.202Z,8.73
2018-09-25T22:35:48.867Z,8.72
2018-09-25T22:38:23.294Z,8.73
2018-09-25T22:40:56.947Z,8.71
2018-09-25T22:43:30.523Z,8.70
2018-09-25T22:46:04.236Z,8.69
2018-09-25T22:48:38.006Z,8.67
2018-09-25T22:51:11.839Z,8.67
2018-09-25T22:53:45.640Z,8.65
2018-09-25T22:56:19.350Z,8.67
2018-09-25T22:58:53.167Z,8.66
2018-09-25T23:01:27.010Z,8.65
2018-09-25T23:04:00.854Z,8.65
2018-09-25T23:06:34.673Z,8.65
2018-09-25T23:09:08.491Z,8.63
2018-09-25T23:11:42.331Z,8.63
2018-09-25T23:14:15.946Z,8.62
2018-09-25T23:16:49.737Z,8.63
2018-09-25T23:19:23.362Z,8.61
2018-09-25T23:21:57.122Z,8.62
2018-09-25T23:24:30.939Z,8.61
2018-09-25T23:27:04.834Z,8.61
2018-09-25T23:29:38.482Z,8.61
2018-09-25T23:32:12.682Z,8.61
2018-09-25T23:34:46.411Z,8.61
2018-09-25T23:37:20.121Z,8.59
2018-09-25T23:40:00.953Z,8.59
2018-09-25T23:42:35.510Z,8.58
2018-09-25T23:46:11.425Z,8.58
2018-09-25T23:48:59.810Z,8.56
2018-09-25T23:51:36.239Z,8.52
2018-09-25T23:54:10.705Z,8.50
2018-09-25T23:57:42.414Z,8.48
